Sns002 — FAD6231 — position and weather

sailwx.info

Track history (hours):
 
Tides and Currents Weather Stations Pressure Air Temp Water Temp Dewpoint Dewpoint Depression Visibility Wind Speed Wind Dir Waves Ship Positions

Sns002

Last reported at 2018-Jun-24 16:04 UTC. Time now 2018-Jun-24 21:54 UTC.
Position N 46°30' W 001°48'.

Length 18 m.

Type: SAR. MMSI: 227411870.

Date/timePositionNaut miles runAvg speedWind from/ knotsBaromVisibWave heightAir tempDewpointWater temp
2018-Jun-24 16:04N 46°30' W 001°48'0 0.0
2018-Jun-24 16:01N 46°30' W 001°48'0 0.0
2018-Jun-24 15:31N 46°30' W 001°48'0 0.0
2018-Jun-24 15:01N 46°30' W 001°48'0 0.0
2018-Jun-24 14:30N 46°30' W 001°48'0 0.0
2018-Jun-24 14:00N 46°30' W 001°48'0 0.0
2018-Jun-24 13:30N 46°30' W 001°48'0 0.0
2018-Jun-24 13:00N 46°30' W 001°48'0 0.0
2018-Jun-24 12:30N 46°30' W 001°48'0 0.0
2018-Jun-24 12:01N 46°30' W 001°48'0 0.0
2018-Jun-24 10:04N 46°30' W 001°48'0 0.0
2018-Jun-24 10:00N 46°30' W 001°48'0 0.0
2018-Jun-24 09:30N 46°30' W 001°48'0 0.0
2018-Jun-24 09:00N 46°30' W 001°48'0 0.0
2018-Jun-24 08:30N 46°30' W 001°48'0 0.0
2018-Jun-24 08:00N 46°30' W 001°48'0 0.0
2018-Jun-23 13:20N 46°30' W 001°48'1 4.4
2018-Jun-23 13:00N 46°29' W 001°47'1 1.0
2018-Jun-23 12:30N 46°29' W 001°47'1 2.2
2018-Jun-23 12:00N 46°30' W 001°48'0 0.0
2018-Jun-23 11:30N 46°30' W 001°48'  
2018-Jun-20 14:08N 46°30' W 001°48'0 1.9
2018-Jun-20 14:00N 46°30' W 001°47'2 4.6
2018-Jun-20 13:30N 46°29' W 001°51'2 4.6
2018-Jun-20 13:00N 46°30' W 001°48'0 0.0
2018-Jun-20 07:00N 46°30' W 001°48'0 0.0
2018-Jun-18 12:11N 46°30' W 001°48'0 0.0
2018-Jun-18 10:10N 46°30' W 001°48'1 3.5
2018-Jun-18 10:00N 46°29' W 001°48'2 3.0
2018-Jun-18 09:30N 46°29' W 001°50'2 0.0
2018-Jun-16 16:30N 46°30' W 001°48'0 0.0
2018-Jun-16 04:01N 46°30' W 001°48'0 0.0
2018-Jun-16 04:00N 46°30' W 001°48'1 1.3
2018-Jun-16 03:30N 46°29' W 001°48'2 3.4
2018-Jun-16 03:00N 46°28' W 001°48'4 7.4
2018-Jun-16 02:30N 46°25' W 001°52'3 6.5
2018-Jun-16 02:00N 46°24' W 001°56'815.8
2018-Jun-16 01:30N 46°28' W 001°47'  
Track history (hours):
 
Tides and Currents Weather Stations Pressure Air Temp Water Temp Dewpoint Dewpoint Depression Visibility Wind Speed Wind Dir Waves Ship Positions

Sns002

Last reported at 2018-Jun-24 16:04 UTC. Time now 2018-Jun-24 21:54 UTC.
Position N 46°30' W 001°48'.

Length 18 m.

Type: SAR. MMSI: 227411870.

Date/timePositionNaut miles runAvg speedWind from/ knotsBaromVisibWave heightAir tempDewpointWater temp
2018-Jun-24 16:04N 46°30' W 001°48'0 0.0
2018-Jun-24 16:01N 46°30' W 001°48'0 0.0
2018-Jun-24 15:31N 46°30' W 001°48'0 0.0
2018-Jun-24 15:01N 46°30' W 001°48'0 0.0
2018-Jun-24 14:30N 46°30' W 001°48'0 0.0
2018-Jun-24 14:00N 46°30' W 001°48'0 0.0
2018-Jun-24 13:30N 46°30' W 001°48'0 0.0
2018-Jun-24 13:00N 46°30' W 001°48'0 0.0
2018-Jun-24 12:30N 46°30' W 001°48'0 0.0
2018-Jun-24 12:01N 46°30' W 001°48'0 0.0
2018-Jun-24 10:04N 46°30' W 001°48'0 0.0
2018-Jun-24 10:00N 46°30' W 001°48'0 0.0
2018-Jun-24 09:30N 46°30' W 001°48'0 0.0
2018-Jun-24 09:00N 46°30' W 001°48'0 0.0
2018-Jun-24 08:30N 46°30' W 001°48'0 0.0
2018-Jun-24 08:00N 46°30' W 001°48'0 0.0
2018-Jun-23 13:20N 46°30' W 001°48'1 4.4
2018-Jun-23 13:00N 46°29' W 001°47'1 1.0
2018-Jun-23 12:30N 46°29' W 001°47'1 2.2
2018-Jun-23 12:00N 46°30' W 001°48'0 0.0
2018-Jun-23 11:30N 46°30' W 001°48'  
2018-Jun-20 14:08N 46°30' W 001°48'0 1.9
2018-Jun-20 14:00N 46°30' W 001°47'2 4.6
2018-Jun-20 13:30N 46°29' W 001°51'2 4.6
2018-Jun-20 13:00N 46°30' W 001°48'0 0.0
2018-Jun-20 07:00N 46°30' W 001°48'0 0.0
2018-Jun-18 12:11N 46°30' W 001°48'0 0.0
2018-Jun-18 10:10N 46°30' W 001°48'1 3.5
2018-Jun-18 10:00N 46°29' W 001°48'2 3.0
2018-Jun-18 09:30N 46°29' W 001°50'2 0.0
2018-Jun-16 16:30N 46°30' W 001°48'0 0.0
2018-Jun-16 04:01N 46°30' W 001°48'0 0.0
2018-Jun-16 04:00N 46°30' W 001°48'1 1.3
2018-Jun-16 03:30N 46°29' W 001°48'2 3.4
2018-Jun-16 03:00N 46°28' W 001°48'4 7.4
2018-Jun-16 02:30N 46°25' W 001°52'3 6.5
2018-Jun-16 02:00N 46°24' W 001°56'815.8
2018-Jun-16 01:30N 46°28' W 001°47'  

Dump ship's entire track history